createdAt,value
2023-05-14T00:01:03.267Z,14.05
2023-05-14T00:04:08.292Z,14.25
2023-05-14T00:07:13.215Z,14.28
2023-05-14T00:10:18.937Z,14.21
2023-05-14T00:13:25.797Z,14.21
2023-05-14T00:16:31.020Z,14.31
2023-05-14T00:19:36.760Z,14.23
2023-05-14T00:22:41.811Z,14.13
2023-05-14T00:25:48.018Z,14.21
2023-05-14T00:28:53.460Z,14.26
2023-05-14T00:31:59.800Z,14.25
2023-05-14T00:35:05.299Z,14.06
2023-05-14T00:38:10.845Z,14.29
2023-05-14T00:41:17.053Z,14.11
2023-05-14T00:44:22.087Z,13.99
2023-05-14T00:47:26.705Z,14.03
2023-05-14T00:50:30.860Z,14.06
2023-05-14T00:53:36.434Z,14.21
2023-05-14T00:56:41.292Z,14.29
2023-05-14T00:59:48.133Z,14.27
2023-05-14T01:02:53.747Z,14.04
2023-05-14T01:06:23.312Z,14.31
2023-05-14T01:09:42.352Z,14.27
2023-05-14T01:13:07.328Z,14.05
2023-05-14T01:16:12.937Z,14.16
2023-05-14T01:19:19.202Z,14.23
2023-05-14T01:22:25.543Z,14.44
2023-05-14T01:25:31.225Z,14.41
2023-05-14T01:28:43.874Z,14.43
2023-05-14T01:31:42.017Z,14.36
2023-05-14T01:34:31.457Z,14.23
2023-05-14T01:37:24.028Z,14.18
2023-05-14T01:40:24.812Z,14.04
2023-05-14T01:43:30.764Z,14.00
2023-05-14T01:46:36.494Z,13.92
2023-05-14T01:49:44.386Z,13.89
2023-05-14T01:52:50.149Z,13.79
2023-05-14T01:55:56.746Z,13.86
2023-05-14T01:59:03.178Z,13.97
2023-05-14T02:02:08.612Z,14.00
2023-05-14T02:05:14.194Z,14.09
2023-05-14T02:08:12.972Z,14.13
2023-05-14T02:11:19.682Z,14.01
2023-05-14T02:14:25.593Z,13.92
2023-05-14T02:17:30.838Z,13.99
2023-05-14T02:20:37.208Z,14.02
2023-05-14T02:23:42.851Z,14.15
2023-05-14T02:26:47.929Z,14.37
2023-05-14T02:29:54.749Z,14.49
2023-05-14T02:33:02.094Z,14.44
2023-05-14T02:36:08.386Z,14.68
2023-05-14T02:39:14.958Z,14.77
2023-05-14T02:42:21.590Z,14.71
2023-05-14T02:45:28.517Z,14.76
2023-05-14T02:48:34.989Z,14.77
2023-05-14T02:51:40.801Z,14.94
2023-05-14T02:54:46.678Z,14.91
2023-05-14T02:57:51.806Z,14.69
2023-05-14T03:00:57.013Z,14.82
2023-05-14T03:04:03.088Z,14.83
2023-05-14T03:07:09.154Z,15.15
2023-05-14T03:10:15.252Z,15.18
2023-05-14T03:13:23.816Z,15.20
2023-05-14T03:16:29.513Z,14.73
2023-05-14T03:19:35.170Z,15.14
2023-05-14T03:22:41.872Z,15.77
2023-05-14T03:25:47.557Z,16.22
2023-05-14T03:28:49.090Z,16.59
2023-05-14T03:31:47.759Z,16.91
2023-05-14T03:34:53.621Z,16.73
2023-05-14T03:38:00.162Z,17.53
2023-05-14T03:41:06.662Z,17.75
2023-05-14T03:44:12.600Z,18.08
2023-05-14T03:47:17.419Z,18.61
2023-05-14T03:50:25.036Z,18.93
2023-05-14T03:53:30.743Z,18.97
2023-05-14T03:56:36.979Z,19.38
2023-05-14T03:59:42.794Z,19.40
2023-05-14T04:02:49.338Z,19.49
2023-05-14T04:05:57.108Z,19.70
2023-05-14T04:09:02.570Z,19.80
2023-05-14T04:12:08.420Z,19.77
2023-05-14T04:15:15.398Z,19.79
2023-05-14T04:18:22.220Z,19.76
2023-05-14T04:21:28.762Z,19.98
2023-05-14T04:24:27.375Z,20.17
2023-05-14T04:27:37.037Z,20.35
2023-05-14T04:30:43.027Z,20.59
2023-05-14T04:33:49.396Z,20.54
2023-05-14T04:36:54.612Z,20.37
2023-05-14T04:40:00.797Z,20.72
2023-05-14T04:43:07.116Z,20.95
2023-05-14T04:46:13.336Z,20.67
2023-05-14T04:49:19.742Z,20.93
2023-05-14T04:52:25.540Z,21.24
2023-05-14T04:55:33.098Z,20.72
2023-05-14T04:58:39.643Z,21.28
2023-05-14T05:01:45.918Z,21.44
2023-05-14T05:04:52.044Z,21.87
2023-05-14T05:07:58.570Z,21.73
2023-05-14T05:11:04.498Z,21.90
2023-05-14T05:14:10.699Z,21.97
2023-05-14T05:17:16.091Z,21.95
2023-05-14T05:20:24.189Z,22.06
2023-05-14T05:23:30.662Z,22.05
2023-05-14T05:26:35.830Z,21.97
2023-05-14T05:29:41.681Z,22.27
2023-05-14T05:32:47.129Z,22.53
2023-05-14T05:35:52.576Z,22.67
2023-05-14T05:38:59.270Z,22.77
2023-05-14T05:42:04.760Z,22.86
2023-05-14T05:45:09.970Z,23.02
2023-05-14T05:48:16.374Z,23.19
2023-05-14T05:51:22.184Z,22.97
2023-05-14T05:54:27.521Z,23.29
2023-05-14T05:57:33.494Z,23.63
2023-05-14T06:00:39.550Z,23.80
2023-05-14T06:03:45.303Z,24.01
2023-05-14T06:06:51.094Z,24.19
2023-05-14T06:09:56.488Z,24.34
2023-05-14T06:13:03.006Z,24.50
2023-05-14T06:16:08.918Z,24.67
2023-05-14T06:19:16.514Z,24.88
2023-05-14T06:22:22.874Z,25.06
2023-05-14T06:25:28.865Z,25.01
2023-05-14T06:28:34.658Z,24.90
2023-05-14T06:31:41.276Z,25.06
2023-05-14T06:34:47.403Z,25.11
2023-05-14T06:37:53.494Z,25.29
2023-05-14T06:41:02.829Z,25.16
2023-05-14T06:44:08.775Z,25.10
2023-05-14T06:47:14.906Z,25.20
2023-05-14T06:50:22.145Z,25.43
2023-05-14T06:53:28.534Z,25.27
2023-05-14T06:56:35.050Z,25.30
2023-05-14T06:59:41.872Z,25.36
2023-05-14T07:02:47.974Z,25.26
2023-05-14T07:05:47.511Z,25.22
2023-05-14T07:08:53.283Z,25.47
2023-05-14T07:11:58.946Z,25.58
2023-05-14T07:15:04.411Z,25.51
2023-05-14T07:18:09.625Z,25.57
2023-05-14T07:21:15.251Z,25.70
2023-05-14T07:24:20.834Z,25.69
2023-05-14T07:27:26.243Z,25.64
2023-05-14T07:30:31.956Z,25.65
2023-05-14T07:33:38.664Z,25.58
2023-05-14T07:36:44.438Z,25.80
2023-05-14T07:39:49.988Z,25.95
2023-05-14T07:42:56.797Z,26.19
2023-05-14T07:46:02.782Z,25.71
2023-05-14T07:49:07.812Z,25.72
2023-05-14T07:52:12.880Z,25.80
2023-05-14T07:55:19.448Z,25.71
2023-05-14T07:58:26.153Z,25.62
2023-05-14T08:01:32.062Z,25.56
2023-05-14T08:04:44.905Z,25.82
2023-05-14T08:07:50.298Z,25.81
2023-05-14T08:10:56.469Z,26.08
2023-05-14T08:13:55.791Z,25.84
2023-05-14T08:17:01.999Z,25.90
2023-05-14T08:20:09.470Z,26.02
2023-05-14T08:23:16.010Z,26.09
2023-05-14T08:26:21.345Z,25.98
2023-05-14T08:29:26.859Z,25.97
2023-05-14T08:32:32.280Z,25.89
2023-05-14T08:35:38.410Z,25.72
2023-05-14T08:38:44.086Z,25.66
2023-05-14T08:41:49.865Z,25.98
2023-05-14T08:45:00.918Z,25.98
2023-05-14T08:48:06.688Z,26.06
2023-05-14T08:51:12.273Z,25.87
2023-05-14T08:54:20.502Z,25.97
2023-05-14T08:57:25.531Z,25.85
2023-05-14T09:00:31.450Z,25.83
2023-05-14T09:03:36.574Z,25.89
2023-05-14T09:06:43.074Z,26.04
2023-05-14T09:09:48.721Z,25.72
2023-05-14T09:12:54.530Z,25.69
2023-05-14T09:15:59.580Z,26.21
2023-05-14T09:19:05.145Z,26.22
2023-05-14T09:22:12.575Z,26.16
2023-05-14T09:25:21.720Z,25.46
2023-05-14T09:28:27.796Z,25.39
2023-05-14T09:31:34.012Z,25.40
2023-05-14T09:34:40.761Z,25.86
2023-05-14T09:37:50.156Z,25.90
2023-05-14T09:40:56.127Z,26.20
2023-05-14T09:44:06.577Z,26.39
2023-05-14T09:47:11.714Z,26.43
2023-05-14T09:50:17.280Z,26.48
2023-05-14T09:53:24.126Z,25.99
2023-05-14T09:56:30.938Z,26.03
2023-05-14T09:59:36.964Z,26.76
2023-05-14T10:02:53.030Z,26.65
2023-05-14T10:05:58.059Z,26.64
2023-05-14T10:09:04.187Z,26.85
2023-05-14T10:12:09.532Z,26.96
2023-05-14T10:15:19.560Z,27.16
2023-05-14T10:18:26.911Z,27.17
2023-05-14T10:21:34.616Z,27.04
2023-05-14T10:24:40.243Z,26.89
2023-05-14T10:27:46.405Z,26.95
2023-05-14T10:30:58.001Z,27.14
2023-05-14T10:34:04.174Z,27.26
2023-05-14T10:37:08.765Z,27.09
2023-05-14T10:40:18.673Z,26.88
2023-05-14T10:43:24.464Z,26.91
2023-05-14T10:46:29.740Z,26.50
2023-05-14T10:49:43.029Z,26.27
2023-05-14T10:52:42.600Z,26.10
2023-05-14T10:55:47.821Z,26.18
2023-05-14T10:58:54.414Z,26.10
2023-05-14T11:01:59.980Z,25.61
2023-05-14T11:05:16.206Z,25.42
2023-05-14T11:08:23.956Z,25.20
2023-05-14T11:11:29.014Z,25.34
2023-05-14T11:14:34.931Z,25.35
2023-05-14T11:17:42.099Z,25.36
2023-05-14T11:20:47.536Z,25.49
2023-05-14T11:23:53.409Z,25.72
2023-05-14T11:26:59.152Z,25.98
2023-05-14T11:30:05.276Z,25.87
2023-05-14T11:33:11.078Z,25.98
2023-05-14T11:36:18.102Z,26.17
2023-05-14T11:39:25.863Z,26.33
2023-05-14T11:42:33.078Z,26.41
2023-05-14T11:45:36.597Z,26.47
2023-05-14T11:48:42.502Z,26.60
2023-05-14T11:51:47.197Z,26.46
2023-05-14T11:54:52.865Z,26.56
2023-05-14T11:57:58.940Z,26.64
2023-05-14T12:01:06.969Z,26.56
2023-05-14T12:04:11.731Z,26.63
2023-05-14T12:07:25.764Z,26.50
2023-05-14T12:10:25.573Z,26.47
2023-05-14T12:13:33.251Z,26.55
2023-05-14T12:16:39.419Z,26.67
2023-05-14T12:19:45.770Z,26.78
2023-05-14T12:22:51.268Z,26.85
2023-05-14T12:26:05.605Z,26.95
2023-05-14T12:29:17.216Z,27.00
2023-05-14T12:32:27.088Z,27.12
2023-05-14T12:35:32.420Z,27.33
2023-05-14T12:38:37.999Z,27.46
2023-05-14T12:41:52.080Z,27.50
2023-05-14T12:44:58.797Z,27.24
2023-05-14T12:48:05.001Z,27.42
2023-05-14T12:51:10.949Z,27.48
2023-05-14T12:54:17.955Z,27.45
2023-05-14T12:57:23.468Z,27.45
2023-05-14T13:00:30.205Z,27.40
2023-05-14T13:03:35.979Z,27.45
2023-05-14T13:06:35.262Z,27.54
2023-05-14T13:09:41.178Z,27.58
2023-05-14T13:12:46.868Z,27.43
2023-05-14T13:15:53.678Z,27.05
2023-05-14T13:18:59.226Z,26.76
2023-05-14T13:22:04.859Z,26.53
2023-05-14T13:25:09.977Z,26.38
2023-05-14T13:28:16.420Z,25.57
2023-05-14T13:31:26.153Z,25.01
2023-05-14T13:34:32.409Z,25.36
2023-05-14T13:37:33.316Z,25.14
2023-05-14T13:40:38.902Z,25.08
2023-05-14T13:43:46.623Z,25.19
2023-05-14T13:46:51.620Z,24.74
2023-05-14T13:49:58.130Z,24.97
2023-05-14T13:53:04.274Z,24.99
2023-05-14T13:56:09.857Z,25.01
2023-05-14T13:59:14.847Z,25.29
2023-05-14T14:02:21.640Z,25.10
2023-05-14T14:05:27.737Z,25.19
2023-05-14T14:08:33.367Z,25.24
2023-05-14T14:11:39.210Z,25.31
2023-05-14T14:14:45.014Z,25.31
2023-05-14T14:17:50.187Z,25.34
2023-05-14T14:20:55.480Z,25.34
2023-05-14T14:24:04.239Z,24.47
2023-05-14T14:27:13.985Z,24.68
2023-05-14T14:30:23.945Z,24.75
2023-05-14T14:33:28.949Z,24.79
2023-05-14T14:36:37.043Z,24.85
2023-05-14T14:39:43.631Z,24.82
2023-05-14T14:42:51.238Z,24.80
2023-05-14T14:45:56.125Z,24.88
2023-05-14T14:49:01.618Z,24.94
2023-05-14T14:52:06.409Z,24.96
2023-05-14T14:55:12.115Z,24.89
2023-05-14T14:58:17.744Z,24.95
2023-05-14T15:01:24.154Z,24.93
2023-05-14T15:04:29.793Z,24.96
2023-05-14T15:07:37.190Z,25.00
2023-05-14T15:10:45.118Z,24.61
2023-05-14T15:13:50.309Z,24.99
2023-05-14T15:16:56.042Z,25.20
2023-05-14T15:20:02.649Z,25.28
2023-05-14T15:23:07.605Z,25.35
2023-05-14T15:26:13.167Z,25.46
2023-05-14T15:29:18.768Z,25.46
2023-05-14T15:32:23.454Z,25.47
2023-05-14T15:35:29.334Z,25.65
2023-05-14T15:38:35.542Z,25.78
2023-05-14T15:41:40.739Z,24.32
2023-05-14T15:44:47.354Z,24.06
2023-05-14T15:47:54.059Z,23.95
2023-05-14T15:50:59.548Z,23.73
2023-05-14T15:54:04.807Z,23.80
2023-05-14T15:57:11.458Z,23.76
2023-05-14T16:00:20.672Z,23.55
2023-05-14T16:03:25.573Z,23.54
2023-05-14T16:06:31.256Z,23.43
2023-05-14T16:09:37.139Z,23.33
2023-05-14T16:12:43.081Z,23.23
2023-05-14T16:15:48.333Z,22.99
2023-05-14T16:18:54.514Z,22.80
2023-05-14T16:21:59.550Z,22.67
2023-05-14T16:25:04.880Z,22.55
2023-05-14T16:28:11.131Z,22.35
2023-05-14T16:31:16.488Z,22.15
2023-05-14T16:34:21.717Z,21.97
2023-05-14T16:37:27.897Z,21.73
2023-05-14T16:40:33.667Z,21.63
2023-05-14T16:43:38.809Z,22.09
2023-05-14T16:46:44.437Z,22.22
2023-05-14T16:49:50.450Z,22.13
2023-05-14T16:52:56.022Z,22.00
2023-05-14T16:56:01.501Z,21.96
2023-05-14T16:59:06.909Z,21.99
2023-05-14T17:02:12.820Z,21.59
2023-05-14T17:05:18.722Z,20.92
2023-05-14T17:08:24.731Z,20.77
2023-05-14T17:11:30.340Z,20.68
2023-05-14T17:14:35.938Z,20.61
2023-05-14T17:17:41.632Z,20.42
2023-05-14T17:20:47.388Z,20.67
2023-05-14T17:23:53.549Z,20.73
2023-05-14T17:26:59.188Z,20.71
2023-05-14T17:30:05.479Z,20.53
2023-05-14T17:33:11.793Z,20.48
2023-05-14T17:36:17.414Z,20.38
2023-05-14T17:39:22.693Z,20.39
2023-05-14T17:42:28.460Z,20.25
2023-05-14T17:45:42.705Z,20.16
2023-05-14T17:48:41.173Z,20.13
2023-05-14T17:51:47.374Z,19.29
2023-05-14T17:54:53.429Z,19.16
2023-05-14T17:57:58.745Z,18.89
2023-05-14T18:01:04.044Z,18.77
2023-05-14T18:04:08.776Z,18.64
2023-05-14T18:07:14.017Z,18.59
2023-05-14T18:10:20.436Z,18.54
2023-05-14T18:13:26.063Z,18.51
2023-05-14T18:16:31.679Z,18.23
2023-05-14T18:19:37.656Z,18.14
2023-05-14T18:22:43.163Z,17.98
2023-05-14T18:25:48.849Z,17.96
2023-05-14T18:28:54.832Z,17.79
2023-05-14T18:32:00.496Z,17.65
2023-05-14T18:35:08.397Z,17.57
2023-05-14T18:38:14.912Z,17.59
2023-05-14T18:41:21.703Z,17.38
2023-05-14T18:44:27.152Z,17.39
2023-05-14T18:47:32.178Z,17.33
2023-05-14T18:50:39.371Z,17.21
2023-05-14T18:53:46.269Z,17.17
2023-05-14T18:56:52.397Z,17.14
2023-05-14T18:59:59.051Z,17.19
2023-05-14T19:03:05.694Z,17.11
2023-05-14T19:06:11.138Z,17.03
2023-05-14T19:09:11.002Z,17.03
2023-05-14T19:12:16.608Z,16.98
2023-05-14T19:15:22.730Z,16.95
2023-05-14T19:18:28.683Z,16.99
2023-05-14T19:21:34.540Z,17.05
2023-05-14T19:24:44.013Z,17.11
2023-05-14T19:27:48.985Z,17.06
2023-05-14T19:30:57.950Z,17.14
2023-05-14T19:34:04.789Z,17.06
2023-05-14T19:37:12.184Z,17.11
2023-05-14T19:40:18.467Z,17.20
2023-05-14T19:43:24.451Z,17.02
2023-05-14T19:46:30.903Z,16.98
2023-05-14T19:49:36.901Z,16.88
2023-05-14T19:52:42.197Z,16.86
2023-05-14T19:55:48.940Z,16.74
2023-05-14T19:58:54.689Z,16.79
2023-05-14T20:02:01.668Z,16.69
2023-05-14T20:05:07.785Z,16.68
2023-05-14T20:08:15.027Z,16.66
2023-05-14T20:11:22.149Z,16.65
2023-05-14T20:14:27.711Z,16.64
2023-05-14T20:17:33.077Z,16.64
2023-05-14T20:20:38.466Z,16.67
2023-05-14T20:23:44.067Z,16.67
2023-05-14T20:26:49.070Z,16.68
2023-05-14T20:29:56.828Z,16.67
2023-05-14T20:33:02.668Z,16.70
2023-05-14T20:36:10.370Z,16.68
2023-05-14T20:39:18.158Z,16.64
2023-05-14T20:42:24.036Z,16.63
2023-05-14T20:45:23.076Z,16.61
2023-05-14T20:48:11.650Z,16.52
2023-05-14T20:51:03.380Z,16.44
2023-05-14T20:53:49.436Z,16.38
2023-05-14T20:56:43.721Z,16.30
2023-05-14T20:59:49.081Z,16.21
2023-05-14T21:02:56.228Z,16.22
2023-05-14T21:06:03.510Z,16.22
2023-05-14T21:09:08.351Z,16.12
2023-05-14T21:12:14.363Z,15.96
2023-05-14T21:15:20.899Z,15.92
2023-05-14T21:18:27.298Z,15.89
2023-05-14T21:21:32.761Z,15.80
2023-05-14T21:24:38.738Z,15.72
2023-05-14T21:27:44.625Z,15.84
2023-05-14T21:30:49.967Z,15.73
2023-05-14T21:33:55.752Z,15.70
2023-05-14T21:37:01.658Z,15.64
2023-05-14T21:40:07.260Z,15.68
2023-05-14T21:43:12.221Z,15.83
2023-05-14T21:46:17.758Z,15.91
2023-05-14T21:49:23.112Z,15.80
2023-05-14T21:52:27.716Z,15.80
2023-05-14T21:55:33.860Z,15.88
2023-05-14T21:58:41.401Z,15.92
2023-05-14T22:02:05.498Z,15.70
2023-05-14T22:04:55.193Z,15.80
2023-05-14T22:08:01.114Z,15.78
2023-05-14T22:11:06.877Z,15.71
2023-05-14T22:14:12.819Z,15.67
2023-05-14T22:17:18.674Z,15.62
2023-05-14T22:20:24.144Z,15.67
2023-05-14T22:23:28.959Z,15.61
2023-05-14T22:26:34.040Z,15.50
2023-05-14T22:29:39.983Z,15.38
2023-05-14T22:32:45.810Z,15.69
2023-05-14T22:35:50.846Z,15.30
2023-05-14T22:38:55.933Z,15.22
2023-05-14T22:42:01.508Z,15.19
2023-05-14T22:45:06.177Z,15.28
2023-05-14T22:48:12.235Z,15.23
2023-05-14T22:51:17.693Z,14.94
2023-05-14T22:54:23.687Z,14.90
2023-05-14T22:57:30.105Z,14.66
2023-05-14T23:00:35.536Z,14.71
2023-05-14T23:03:42.121Z,14.56
2023-05-14T23:06:41.039Z,14.42
2023-05-14T23:09:33.845Z,14.39
2023-05-14T23:12:38.979Z,14.38
2023-05-14T23:15:45.424Z,14.44
2023-05-14T23:18:51.331Z,14.36
2023-05-14T23:21:58.282Z,14.20
2023-05-14T23:25:04.121Z,14.18
2023-05-14T23:28:11.417Z,14.19
2023-05-14T23:31:17.159Z,14.30
2023-05-14T23:34:22.672Z,14.19
2023-05-14T23:37:28.748Z,14.20
2023-05-14T23:40:34.413Z,14.21
2023-05-14T23:43:40.776Z,14.26
2023-05-14T23:46:47.426Z,14.19
2023-05-14T23:49:52.437Z,14.21
2023-05-14T23:52:59.219Z,14.24
2023-05-14T23:56:04.549Z,14.21
2023-05-14T23:59:10.651Z,14.06
